createdAt,value
2019-02-26T00:00:27.507Z,6.59
2019-02-26T00:02:59.292Z,6.74
2019-02-26T00:05:28.419Z,6.77
2019-02-26T00:07:57.842Z,6.47
2019-02-26T00:10:27.234Z,6.54
2019-02-26T00:12:56.462Z,6.46
2019-02-26T00:15:24.790Z,6.17
2019-02-26T00:17:53.158Z,6.11
2019-02-26T00:20:21.438Z,6.33
2019-02-26T00:22:49.785Z,6.42
2019-02-26T00:25:20.333Z,6.20
2019-02-26T00:27:49.481Z,6.24
2019-02-26T00:30:18.722Z,6.34
2019-02-26T00:32:47.376Z,6.05
2019-02-26T00:35:16.463Z,5.99
2019-02-26T00:37:46.643Z,6.20
2019-02-26T00:40:19.563Z,6.32
2019-02-26T00:42:50.187Z,6.38
2019-02-26T00:45:16.607Z,5.91
2019-02-26T00:47:46.225Z,6.04
2019-02-26T00:50:16.612Z,6.06
2019-02-26T00:52:45.174Z,6.01
2019-02-26T00:55:13.623Z,5.99
2019-02-26T00:57:43.088Z,5.82
2019-02-26T01:00:16.613Z,5.59
2019-02-26T01:02:45.062Z,5.28
2019-02-26T01:05:15.957Z,5.38
2019-02-26T01:07:46.866Z,5.63
2019-02-26T01:10:16.395Z,5.83
2019-02-26T01:12:45.235Z,5.84
2019-02-26T01:15:15.766Z,5.50
2019-02-26T01:17:43.959Z,5.34
2019-02-26T01:20:16.567Z,5.46
2019-02-26T01:22:45.562Z,5.37
2019-02-26T01:25:15.899Z,5.54
2019-02-26T01:27:47.816Z,5.65
2019-02-26T01:30:21.223Z,5.63
2019-02-26T01:32:47.542Z,5.71
2019-02-26T01:35:16.077Z,5.75
2019-02-26T01:37:44.361Z,5.65
2019-02-26T01:40:16.338Z,5.73
2019-02-26T01:42:47.163Z,5.54
2019-02-26T01:45:13.958Z,5.34
2019-02-26T01:47:43.425Z,5.23
2019-02-26T01:50:16.023Z,5.15
2019-02-26T01:52:44.653Z,5.13
2019-02-26T01:55:13.211Z,5.00
2019-02-26T01:57:43.462Z,4.82
2019-02-26T02:00:14.593Z,4.90
2019-02-26T02:02:42.935Z,5.06
2019-02-26T02:05:11.318Z,5.05
2019-02-26T02:07:39.749Z,5.19
2019-02-26T02:10:10.900Z,5.17
2019-02-26T02:12:41.384Z,5.18
2019-02-26T02:15:12.373Z,5.32
2019-02-26T02:17:41.805Z,5.44
2019-02-26T02:20:16.453Z,5.25
2019-02-26T02:22:44.770Z,5.21
2019-02-26T02:25:13.118Z,5.20
2019-02-26T02:27:41.430Z,4.89
2019-02-26T02:30:18.442Z,5.01
2019-02-26T02:32:43.406Z,5.12
2019-02-26T02:35:12.563Z,5.12
2019-02-26T02:37:42.102Z,5.33
2019-02-26T02:40:12.026Z,5.16
2019-02-26T02:42:42.940Z,5.25
2019-02-26T02:45:16.143Z,5.13
2019-02-26T02:47:42.230Z,5.12
2019-02-26T02:50:14.812Z,5.14
2019-02-26T02:52:42.711Z,5.19
2019-02-26T02:55:15.625Z,5.14
2019-02-26T02:57:41.725Z,5.11
2019-02-26T03:00:15.087Z,5.09
2019-02-26T03:02:46.494Z,4.91
2019-02-26T03:05:14.240Z,5.03
2019-02-26T03:07:44.933Z,5.07
2019-02-26T03:10:14.236Z,4.90
2019-02-26T03:12:44.033Z,4.75
2019-02-26T03:15:14.714Z,4.76
2019-02-26T03:17:43.050Z,4.82
2019-02-26T03:20:12.660Z,4.61
2019-02-26T03:22:43.169Z,4.62
2019-02-26T03:25:17.677Z,4.53
2019-02-26T03:27:45.757Z,4.59
2019-02-26T03:30:26.290Z,4.58
2019-02-26T03:32:52.066Z,4.81
2019-02-26T03:35:22.243Z,4.94
2019-02-26T03:37:51.479Z,4.82
2019-02-26T03:40:20.893Z,4.62
2019-02-26T03:42:49.525Z,4.47
2019-02-26T03:45:23.597Z,4.51
2019-02-26T03:47:47.996Z,4.59
2019-02-26T03:50:16.802Z,4.49
2019-02-26T03:52:45.477Z,4.56
2019-02-26T03:55:17.861Z,4.39
2019-02-26T03:57:47.450Z,4.31
2019-02-26T04:00:17.400Z,4.27
2019-02-26T04:02:49.068Z,4.20
2019-02-26T04:05:17.637Z,4.19
2019-02-26T04:07:49.049Z,4.11
2019-02-26T04:10:16.124Z,4.18
2019-02-26T04:12:48.236Z,4.04
2019-02-26T04:15:18.661Z,3.85
2019-02-26T04:17:47.071Z,3.85
2019-02-26T04:20:16.116Z,3.84
2019-02-26T04:22:49.092Z,3.85
2019-02-26T04:25:18.184Z,3.89
2019-02-26T04:28:10.823Z,3.80
2019-02-26T04:30:59.230Z,3.90
2019-02-26T04:33:59.538Z,3.93
2019-02-26T04:36:47.691Z,4.01
2019-02-26T04:39:53.919Z,4.02
2019-02-26T04:42:46.503Z,4.11
2019-02-26T04:45:37.265Z,4.09
2019-02-26T04:48:08.825Z,4.04
2019-02-26T04:50:38.702Z,4.14
2019-02-26T04:53:08.909Z,4.10
2019-02-26T04:55:39.094Z,4.10
2019-02-26T04:58:08.677Z,4.18
2019-02-26T05:00:38.690Z,4.09
2019-02-26T05:03:08.603Z,3.98
2019-02-26T05:05:37.365Z,4.05
2019-02-26T05:08:09.244Z,4.28
2019-02-26T05:10:35.797Z,4.25
2019-02-26T05:13:06.677Z,4.23
2019-02-26T05:15:34.169Z,4.17
2019-02-26T05:18:02.885Z,4.18
2019-02-26T05:20:33.507Z,4.08
2019-02-26T05:23:03.097Z,3.99
2019-02-26T05:25:34.375Z,4.03
2019-02-26T05:28:03.682Z,3.93
2019-02-26T05:30:31.813Z,3.93
2019-02-26T05:33:00.854Z,3.76
2019-02-26T05:35:30.225Z,3.76
2019-02-26T05:38:00.956Z,3.56
2019-02-26T05:40:28.721Z,3.65
2019-02-26T05:42:59.438Z,3.78
2019-02-26T05:45:29.329Z,3.97
2019-02-26T05:47:58.953Z,3.82
2019-02-26T05:50:29.553Z,3.77
2019-02-26T05:52:58.944Z,3.87
2019-02-26T05:55:28.253Z,3.75
2019-02-26T05:57:56.773Z,3.73
2019-02-26T06:00:28.505Z,3.81
2019-02-26T06:02:55.138Z,3.69
2019-02-26T06:05:26.045Z,3.80
2019-02-26T06:07:53.637Z,3.81
2019-02-26T06:10:24.339Z,3.56
2019-02-26T06:12:51.985Z,3.70
2019-02-26T06:15:22.518Z,3.67
2019-02-26T06:17:51.472Z,3.93
2019-02-26T06:20:23.661Z,4.03
2019-02-26T06:22:52.158Z,4.01
2019-02-26T06:25:24.085Z,4.01
2019-02-26T06:27:50.510Z,3.74
2019-02-26T06:30:19.070Z,3.85
2019-02-26T06:32:47.356Z,3.87
2019-02-26T06:35:19.265Z,3.80
2019-02-26T06:37:47.240Z,3.85
2019-02-26T06:40:16.911Z,3.88
2019-02-26T06:42:45.207Z,3.86
2019-02-26T06:45:16.537Z,3.82
2019-02-26T06:47:45.602Z,3.88
2019-02-26T06:50:18.002Z,3.88
2019-02-26T06:52:47.572Z,3.83
2019-02-26T06:55:15.457Z,3.95
2019-02-26T06:57:46.864Z,4.05
2019-02-26T07:00:21.596Z,4.06
2019-02-26T07:02:48.911Z,4.11
2019-02-26T07:05:17.405Z,4.30
2019-02-26T07:07:45.753Z,4.52
2019-02-26T07:10:18.452Z,5.12
2019-02-26T07:12:46.136Z,5.67
2019-02-26T07:15:15.962Z,5.92
2019-02-26T07:17:46.073Z,6.03
2019-02-26T07:20:14.390Z,6.63
2019-02-26T07:22:44.095Z,7.69
2019-02-26T07:25:15.344Z,8.51
2019-02-26T07:27:42.873Z,9.79
2019-02-26T07:30:12.912Z,11.04
2019-02-26T07:32:45.114Z,12.87
2019-02-26T07:35:13.771Z,13.78
2019-02-26T07:37:41.657Z,14.07
2019-02-26T07:40:13.141Z,13.04
2019-02-26T07:42:41.940Z,13.90
2019-02-26T07:45:15.267Z,15.12
2019-02-26T07:47:45.053Z,16.58
2019-02-26T07:50:14.616Z,16.88
2019-02-26T07:52:43.377Z,17.37
2019-02-26T07:55:14.926Z,18.23
2019-02-26T07:57:45.324Z,18.44
2019-02-26T08:00:16.084Z,18.44
2019-02-26T08:02:44.417Z,19.44
2019-02-26T08:05:12.782Z,19.99
2019-02-26T08:07:41.073Z,19.76
2019-02-26T08:10:14.468Z,20.52
2019-02-26T08:12:42.792Z,21.78
2019-02-26T08:15:15.437Z,23.22
2019-02-26T08:17:47.798Z,24.48
2019-02-26T08:20:15.034Z,24.92
2019-02-26T08:22:43.484Z,25.65
2019-02-26T08:25:12.955Z,25.06
2019-02-26T08:27:41.419Z,25.83
2019-02-26T08:30:18.617Z,25.89
2019-02-26T08:32:48.206Z,25.65
2019-02-26T08:35:18.339Z,26.16
2019-02-26T08:37:46.094Z,26.61
2019-02-26T08:40:15.066Z,26.13
2019-02-26T08:42:43.633Z,26.13
2019-02-26T08:45:15.080Z,27.20
2019-02-26T08:47:44.215Z,25.69
2019-02-26T08:50:14.838Z,26.59
2019-02-26T08:52:46.782Z,27.37
2019-02-26T08:55:16.158Z,27.59
2019-02-26T08:57:45.123Z,27.56
2019-02-26T09:00:18.477Z,27.53
2019-02-26T09:02:50.558Z,27.93
2019-02-26T09:05:16.923Z,28.36
2019-02-26T09:07:47.440Z,28.37
2019-02-26T09:10:17.964Z,28.60
2019-02-26T09:12:48.704Z,27.71
2019-02-26T09:15:20.389Z,27.60
2019-02-26T09:17:48.743Z,26.84
2019-02-26T09:20:19.512Z,26.36
2019-02-26T09:22:50.174Z,27.20
2019-02-26T09:25:20.388Z,26.97
2019-02-26T09:27:48.154Z,27.07
2019-02-26T09:30:18.084Z,27.35
2019-02-26T09:32:46.514Z,27.35
2019-02-26T09:35:24.587Z,27.32
2019-02-26T09:37:50.745Z,26.88
2019-02-26T09:40:23.556Z,27.82
2019-02-26T09:42:53.727Z,29.05
2019-02-26T09:45:23.665Z,29.64
2019-02-26T09:47:55.717Z,29.05
2019-02-26T09:50:23.055Z,28.36
2019-02-26T09:52:53.470Z,28.32
2019-02-26T09:55:21.675Z,27.51
2019-02-26T09:57:49.997Z,28.94
2019-02-26T10:00:22.634Z,28.64
2019-02-26T10:02:51.887Z,29.35
2019-02-26T10:05:20.047Z,29.26
2019-02-26T10:07:48.360Z,28.20
2019-02-26T10:10:19.899Z,29.83
2019-02-26T10:12:48.356Z,30.07
2019-02-26T10:15:17.850Z,29.22
2019-02-26T10:17:46.148Z,29.89
2019-02-26T10:20:27.875Z,29.74
2019-02-26T10:22:57.100Z,30.31
2019-02-26T10:25:25.673Z,30.01
2019-02-26T10:27:53.803Z,30.18
2019-02-26T10:30:22.544Z,30.15
2019-02-26T10:32:51.010Z,30.53
2019-02-26T10:35:25.581Z,30.77
2019-02-26T10:37:56.839Z,30.66
2019-02-26T10:40:34.617Z,29.59
2019-02-26T10:42:55.285Z,29.92
2019-02-26T10:45:28.832Z,30.63
2019-02-26T10:47:59.385Z,31.75
2019-02-26T10:50:31.510Z,31.12
2019-02-26T10:53:06.754Z,30.69
2019-02-26T10:55:35.242Z,31.32
2019-02-26T10:58:03.592Z,30.43
2019-02-26T11:00:32.193Z,31.91
2019-02-26T11:03:00.126Z,30.75
2019-02-26T11:05:28.526Z,31.44
2019-02-26T11:07:59.670Z,31.43
2019-02-26T11:10:26.923Z,30.70
2019-02-26T11:12:58.554Z,33.12
2019-02-26T11:15:26.785Z,32.41
2019-02-26T11:17:55.897Z,32.31
2019-02-26T11:20:27.829Z,30.35
2019-02-26T11:22:54.539Z,32.27
2019-02-26T11:25:24.893Z,32.35
2019-02-26T11:27:53.004Z,33.04
2019-02-26T11:30:30.302Z,32.99
2019-02-26T11:33:02.232Z,33.79
2019-02-26T11:35:27.844Z,32.35
2019-02-26T11:37:57.808Z,32.94
2019-02-26T11:40:29.583Z,32.47
2019-02-26T11:42:56.993Z,33.40
2019-02-26T11:45:25.456Z,33.87
2019-02-26T11:47:57.320Z,35.01
2019-02-26T11:50:27.965Z,35.54
2019-02-26T11:52:56.963Z,35.50
2019-02-26T11:55:26.905Z,35.20
2019-02-26T11:57:55.500Z,34.80
2019-02-26T12:00:42.833Z,35.36
2019-02-26T12:03:10.171Z,35.23
2019-02-26T12:05:41.270Z,35.24
2019-02-26T12:08:11.302Z,35.73
2019-02-26T12:10:40.513Z,35.19
2019-02-26T12:13:09.288Z,35.17
2019-02-26T12:15:39.779Z,35.69
2019-02-26T12:18:09.893Z,34.63
2019-02-26T12:20:40.262Z,35.20
2019-02-26T12:23:10.640Z,34.65
2019-02-26T12:25:38.323Z,34.80
2019-02-26T12:28:08.260Z,34.77
2019-02-26T12:30:37.653Z,34.78
2019-02-26T12:33:09.528Z,34.93
2019-02-26T12:35:38.287Z,34.98
2019-02-26T12:38:17.241Z,35.56
2019-02-26T12:40:40.297Z,33.27
2019-02-26T12:43:11.030Z,34.88
2019-02-26T12:45:38.748Z,36.37
2019-02-26T12:48:10.311Z,35.12
2019-02-26T12:50:40.339Z,35.65
2019-02-26T12:53:09.528Z,35.32
2019-02-26T12:55:41.233Z,36.27
2019-02-26T12:58:10.628Z,36.62
2019-02-26T13:00:42.010Z,36.27
2019-02-26T13:03:12.333Z,35.47
2019-02-26T13:05:41.945Z,35.20
2019-02-26T13:08:10.565Z,34.81
2019-02-26T13:10:42.625Z,34.19
2019-02-26T13:13:09.620Z,33.89
2019-02-26T13:15:37.960Z,31.85
2019-02-26T13:18:06.324Z,31.66
2019-02-26T13:20:35.085Z,30.41
2019-02-26T13:23:16.380Z,30.06
2019-02-26T13:25:33.677Z,29.11
2019-02-26T13:28:02.146Z,29.75
2019-02-26T13:30:30.452Z,29.10
2019-02-26T13:35:29.048Z,28.53
2019-02-26T13:37:59.088Z,29.08
2019-02-26T13:40:28.114Z,28.86
2019-02-26T13:45:27.492Z,28.31
2019-02-26T13:48:01.032Z,28.48
2019-02-26T13:50:30.700Z,28.94
2019-02-26T13:52:59.020Z,29.53
2019-02-26T13:55:27.376Z,30.14
2019-02-26T13:57:55.856Z,30.36
2019-02-26T14:00:26.658Z,29.65
2019-02-26T14:02:54.528Z,29.21
2019-02-26T14:05:22.878Z,29.72
2019-02-26T14:07:51.745Z,29.30
2019-02-26T14:10:23.896Z,29.79
2019-02-26T14:12:52.359Z,30.07
2019-02-26T14:15:25.735Z,29.57
2019-02-26T14:17:54.347Z,28.47
2019-02-26T14:20:22.789Z,28.64
2019-02-26T14:22:51.233Z,28.18
2019-02-26T14:25:19.785Z,27.63
2019-02-26T14:27:48.153Z,27.45
2019-02-26T14:30:17.726Z,27.44
2019-02-26T14:32:46.166Z,27.53
2019-02-26T14:35:16.376Z,26.87
2019-02-26T14:37:44.697Z,26.98
2019-02-26T14:40:14.473Z,26.78
2019-02-26T14:42:42.856Z,26.10
2019-02-26T14:45:22.454Z,25.88
2019-02-26T14:47:50.751Z,25.49
2019-02-26T14:50:20.206Z,25.91
2019-02-26T14:52:48.608Z,25.94
2019-02-26T14:55:17.374Z,25.46
2019-02-26T14:58:09.679Z,25.20
2019-02-26T15:00:38.201Z,24.72
2019-02-26T15:03:06.500Z,24.39
2019-02-26T15:05:35.122Z,24.45
2019-02-26T15:08:03.435Z,24.50
2019-02-26T15:10:31.753Z,24.58
2019-02-26T15:13:00.039Z,24.34
2019-02-26T15:15:28.436Z,24.09
2019-02-26T15:17:56.799Z,24.41
2019-02-26T15:20:26.295Z,23.50
2019-02-26T15:22:54.890Z,23.64
2019-02-26T15:25:28.780Z,23.59
2019-02-26T15:28:05.127Z,23.68
2019-02-26T15:30:28.576Z,23.26
2019-02-26T15:32:57.046Z,23.31
2019-02-26T15:35:25.623Z,23.19
2019-02-26T15:37:54.085Z,23.19
2019-02-26T15:40:22.823Z,23.35
2019-02-26T15:42:53.007Z,23.25
2019-02-26T15:45:24.233Z,23.02
2019-02-26T15:47:52.797Z,22.76
2019-02-26T15:50:21.692Z,22.71
2019-02-26T15:52:52.627Z,22.79
2019-02-26T15:55:25.907Z,21.98
2019-02-26T15:57:55.591Z,21.99
2019-02-26T16:00:24.983Z,21.88
2019-02-26T16:02:54.382Z,21.65
2019-02-26T16:05:34.403Z,21.68
2019-02-26T16:08:03.198Z,21.92
2019-02-26T16:10:31.494Z,21.71
2019-02-26T16:13:06.154Z,21.67
2019-02-26T16:15:39.047Z,21.51
2019-02-26T16:18:07.504Z,21.09
2019-02-26T16:20:35.793Z,21.25
2019-02-26T16:23:04.363Z,20.97
2019-02-26T16:25:32.663Z,21.06
2019-02-26T16:28:01.063Z,20.76
2019-02-26T16:30:29.651Z,20.94
2019-02-26T16:32:58.036Z,21.03
2019-02-26T16:35:26.536Z,20.98
2019-02-26T16:37:55.162Z,20.87
2019-02-26T16:40:23.645Z,20.85
2019-02-26T16:42:51.966Z,20.78
2019-02-26T16:45:25.491Z,20.75
2019-02-26T16:47:53.885Z,20.65
2019-02-26T16:50:31.656Z,20.43
2019-02-26T16:53:01.075Z,20.46
2019-02-26T16:55:29.968Z,20.19
2019-02-26T16:58:02.360Z,20.07
2019-02-26T17:00:29.571Z,19.79
2019-02-26T17:03:00.789Z,19.72
2019-02-26T17:05:28.401Z,19.49
2019-02-26T17:07:57.318Z,19.43
2019-02-26T17:10:29.072Z,19.28
2019-02-26T17:12:56.639Z,19.36
2019-02-26T17:15:37.784Z,19.06
2019-02-26T17:18:09.608Z,19.03
2019-02-26T17:20:36.651Z,18.86
2019-02-26T17:23:05.121Z,18.78
2019-02-26T17:25:33.501Z,18.68
2019-02-26T17:28:01.877Z,18.53
2019-02-26T17:30:30.328Z,18.38
2019-02-26T17:32:58.820Z,18.29
2019-02-26T17:35:29.582Z,18.17
2019-02-26T17:37:57.411Z,17.89
2019-02-26T17:40:26.991Z,17.77
2019-02-26T17:42:55.438Z,17.74
2019-02-26T17:45:29.542Z,17.67
2019-02-26T17:47:57.959Z,17.72
2019-02-26T17:50:37.001Z,17.58
2019-02-26T17:53:05.598Z,17.12
2019-02-26T17:55:34.046Z,16.86
2019-02-26T17:58:02.451Z,16.77
2019-02-26T18:00:32.401Z,16.69
2019-02-26T18:03:00.794Z,16.53
2019-02-26T18:05:29.107Z,16.38
2019-02-26T18:07:57.489Z,16.22
2019-02-26T18:10:26.773Z,15.75
2019-02-26T18:12:55.575Z,15.85
2019-02-26T18:15:23.976Z,15.41
2019-02-26T18:17:52.315Z,15.47
2019-02-26T18:20:22.199Z,15.43
2019-02-26T18:22:50.793Z,15.54
2019-02-26T18:25:23.433Z,15.65
2019-02-26T18:27:51.825Z,15.14
2019-02-26T18:30:25.856Z,15.03
2019-02-26T18:32:57.333Z,14.80
2019-02-26T18:35:24.367Z,14.36
2019-02-26T18:37:52.718Z,14.64
2019-02-26T18:40:21.048Z,14.37
2019-02-26T18:42:49.621Z,14.09
2019-02-26T18:45:20.714Z,14.35
2019-02-26T18:47:49.095Z,14.55
2019-02-26T18:50:17.578Z,14.28
2019-02-26T18:52:45.974Z,14.11
2019-02-26T18:55:16.534Z,14.16
2019-02-26T18:57:45.019Z,13.82
2019-02-26T19:00:25.968Z,13.48
2019-02-26T19:02:55.067Z,13.29
2019-02-26T19:05:23.813Z,12.98
2019-02-26T19:07:53.613Z,12.99
2019-02-26T19:10:22.145Z,13.37
2019-02-26T19:12:50.749Z,13.33
2019-02-26T19:15:21.416Z,13.47
2019-02-26T19:17:51.803Z,13.15
2019-02-26T19:20:22.869Z,13.19
2019-02-26T19:22:52.145Z,12.91
2019-02-26T19:25:20.942Z,13.07
2019-02-26T19:27:52.858Z,13.30
2019-02-26T19:30:21.604Z,13.11
2019-02-26T19:32:50.002Z,12.69
2019-02-26T19:35:18.559Z,12.76
2019-02-26T19:37:49.519Z,12.70
2019-02-26T19:40:23.809Z,12.54
2019-02-26T19:42:52.927Z,12.29
2019-02-26T19:45:21.659Z,12.15
2019-02-26T19:47:50.102Z,12.50
2019-02-26T19:50:19.203Z,12.21
2019-02-26T19:52:56.386Z,12.10
2019-02-26T19:55:20.701Z,12.04
2019-02-26T19:57:50.706Z,12.03
2019-02-26T20:00:19.976Z,12.42
2019-02-26T20:02:49.212Z,12.22
2019-02-26T20:05:20.639Z,12.21
2019-02-26T20:07:49.821Z,11.95
2019-02-26T20:10:18.721Z,12.17
2019-02-26T20:12:47.327Z,11.92
2019-02-26T20:15:15.731Z,11.75
2019-02-26T20:17:48.966Z,11.60
2019-02-26T20:20:22.124Z,11.44
2019-02-26T20:22:51.013Z,11.27
2019-02-26T20:25:21.014Z,11.10
2019-02-26T20:27:49.678Z,11.30
2019-02-26T20:30:23.196Z,11.11
2019-02-26T20:32:51.856Z,11.08
2019-02-26T20:35:20.293Z,11.18
2019-02-26T20:37:49.437Z,10.99
2019-02-26T20:40:22.490Z,10.96
2019-02-26T20:42:50.841Z,10.82
2019-02-26T20:45:22.466Z,10.60
2019-02-26T20:47:50.758Z,10.70
2019-02-26T20:50:21.280Z,10.70
2019-02-26T20:52:49.716Z,10.97
2019-02-26T20:55:23.971Z,10.57
2019-02-26T20:57:52.304Z,10.24
2019-02-26T21:00:25.025Z,10.46
2019-02-26T21:02:51.088Z,10.58
2019-02-26T21:05:19.561Z,10.76
2019-02-26T21:07:49.652Z,10.66
2019-02-26T21:10:19.561Z,10.34
2019-02-26T21:12:48.069Z,10.26
2019-02-26T21:15:21.553Z,10.08
2019-02-26T21:17:50.053Z,9.88
2019-02-26T21:20:18.547Z,9.88
2019-02-26T21:22:46.859Z,10.09
2019-02-26T21:25:16.540Z,10.12
2019-02-26T21:27:44.982Z,10.12
2019-02-26T21:30:18.528Z,9.97
2019-02-26T21:32:46.941Z,9.76
2019-02-26T21:35:15.321Z,9.54
2019-02-26T21:37:43.722Z,9.54
2019-02-26T21:40:16.160Z,9.57
2019-02-26T21:42:44.313Z,9.57
2019-02-26T21:45:19.083Z,9.40
2019-02-26T21:47:47.750Z,9.55
2019-02-26T21:50:16.773Z,9.55
2019-02-26T21:52:59.037Z,9.41
2019-02-26T21:55:16.211Z,9.49
2019-02-26T21:57:44.595Z,9.49
2019-02-26T22:00:15.308Z,9.00
2019-02-26T22:02:44.485Z,9.00
2019-02-26T22:05:13.028Z,9.26
2019-02-26T22:07:41.422Z,8.81
2019-02-26T22:10:13.119Z,8.94
2019-02-26T22:12:41.575Z,9.05
2019-02-26T22:15:12.827Z,8.93
2019-02-26T22:17:41.918Z,8.84
2019-02-26T22:20:27.490Z,8.58
2019-02-26T22:22:50.555Z,8.43
2019-02-26T22:25:19.085Z,8.67
2019-02-26T22:27:48.351Z,8.73
2019-02-26T22:30:21.519Z,8.40
2019-02-26T22:32:48.190Z,8.40
2019-02-26T22:35:16.574Z,8.06
2019-02-26T22:37:45.217Z,8.39
2019-02-26T22:40:14.655Z,8.28
2019-02-26T22:42:43.085Z,8.33
2019-02-26T22:45:13.378Z,8.28
2019-02-26T22:47:43.893Z,8.52
2019-02-26T22:50:13.476Z,8.50
2019-02-26T22:52:42.018Z,8.50
2019-02-26T22:55:16.080Z,8.13
2019-02-26T22:57:42.524Z,8.13
2019-02-26T23:00:35.119Z,8.27
2019-02-26T23:03:03.881Z,8.26
2019-02-26T23:05:32.205Z,8.06
2019-02-26T23:08:00.557Z,8.11
2019-02-26T23:10:29.254Z,8.16
2019-02-26T23:12:57.528Z,8.18
2019-02-26T23:15:25.991Z,8.18
2019-02-26T23:17:58.125Z,7.97
2019-02-26T23:20:24.732Z,8.11
2019-02-26T23:22:53.590Z,8.08
2019-02-26T23:25:22.076Z,8.12
2019-02-26T23:27:50.428Z,8.12
2019-02-26T23:30:18.935Z,8.17
2019-02-26T23:32:47.425Z,8.10
2019-02-26T23:35:15.830Z,7.59
2019-02-26T23:37:44.205Z,7.38
2019-02-26T23:40:13.370Z,7.53
2019-02-26T23:42:41.733Z,7.40
2019-02-26T23:45:12.080Z,7.27
2019-02-26T23:47:40.427Z,7.27
2019-02-26T23:50:09.991Z,7.20
2019-02-26T23:52:38.383Z,7.17
2019-02-26T23:55:13.006Z,7.25
2019-02-26T23:57:38.864Z,7.27
